Time;durP1;ratioP1;P1;durP2;ratioP2;P2;SDS_P1;SDS_P2;PMS_P1;PMS_P2;Temp;Humidity;BMP_temperature;BMP_pressure;BME280_temperature;BME280_humidity;BME280_pressure;Samples;Min_cycle;Max_cycle;Signal;HPM_P1;HPM_P2
2023/02/08 00:00:21;;;;;;;13.35;9.63;;;-4.60;91.70;;;;;;5054075;28;20036;-78
2023/02/08 00:02:48;;;;;;;15.52;7.78;;;-4.60;91.70;;;;;;5053706;28;20045;-77
2023/02/08 00:05:13;;;;;;;15.38;7.03;;;-4.60;91.70;;;;;;5053767;28;20017;-78
2023/02/08 00:07:39;;;;;;;13.85;8.80;;;-4.60;91.60;;;;;;5054149;28;20476;-78
2023/02/08 00:10:05;;;;;;;15.80;8.65;;;-4.70;91.70;;;;;;5053609;28;20428;-78
2023/02/08 00:12:33;;;;;;;15.18;8.73;;;-4.70;91.80;;;;;;5051210;28;20056;-79
2023/02/08 00:14:59;;;;;;;12.82;8.13;;;-4.60;91.80;;;;;;5053681;28;20071;-79
2023/02/08 00:17:25;;;;;;;12.60;7.55;;;-4.70;91.70;;;;;;5053479;28;20082;-79
2023/02/08 00:19:51;;;;;;;14.57;8.82;;;-4.70;91.80;;;;;;5053679;28;20045;-77
2023/02/08 00:22:16;;;;;;;15.07;9.43;;;-4.70;91.70;;;;;;5035376;28;20503;-79
2023/02/08 00:24:42;;;;;;;14.75;8.63;;;-4.70;91.80;;;;;;5053320;28;20029;-78
2023/02/08 00:27:08;;;;;;;13.45;8.63;;;-4.70;91.80;;;;;;5053598;28;20463;-79
2023/02/08 00:29:34;;;;;;;17.42;10.82;;;-4.60;91.90;;;;;;5052886;28;20028;-78
2023/02/08 00:32:00;;;;;;;14.25;8.48;;;-4.60;91.90;;;;;;5053192;28;20021;-78
2023/02/08 00:34:26;;;;;;;18.00;9.32;;;-4.60;91.90;;;;;;5035025;28;20057;-77
2023/02/08 00:36:52;;;;;;;11.77;6.82;;;-4.60;91.90;;;;;;5053254;28;20558;-78
2023/02/08 00:39:23;;;;;;;16.10;9.70;;;-4.60;91.80;;;;;;5053117;28;20075;-79
2023/02/08 00:41:49;;;;;;;12.15;8.90;;;-4.70;91.80;;;;;;5053061;28;20498;-78
2023/02/08 00:44:15;;;;;;;13.18;8.40;;;-4.60;91.90;;;;;;5051738;28;20032;-78
2023/02/08 00:46:40;;;;;;;13.70;8.57;;;-4.60;91.80;;;;;;5052969;28;20028;-78
2023/02/08 00:49:06;;;;;;;13.95;8.55;;;-4.70;91.70;;;;;;5053172;28;20025;-77
2023/02/08 00:51:32;;;;;;;10.68;7.38;;;-4.80;91.60;;;;;;5021813;28;20399;-75
2023/02/08 00:53:58;;;;;;;12.45;7.75;;;-4.80;91.60;;;;;;5052893;28;20031;-77
2023/02/08 00:56:24;;;;;;;11.80;7.63;;;-4.90;91.60;;;;;;5034963;28;20083;-77
2023/02/08 00:58:49;;;;;;;14.65;9.10;;;-5.00;91.80;;;;;;5053016;28;20033;-77
2023/02/08 01:01:18;;;;;;;15.45;8.85;;;-5.00;91.90;;;;;;5032458;28;20037;-77
2023/02/08 01:03:44;;;;;;;13.23;9.75;;;-5.00;92.00;;;;;;5034930;28;20017;-77
2023/02/08 01:06:14;;;;;;;11.95;7.50;;;-5.00;92.10;;;;;;5052709;28;20100;-77
2023/02/08 01:08:39;;;;;;;14.05;7.68;;;-4.90;92.20;;;;;;5051753;28;20041;-77
2023/02/08 01:11:16;;;;;;;9.93;6.85;;;-4.90;92.20;;;;;;5053040;28;20024;-77
2023/02/08 01:13:42;;;;;;;12.55;7.53;;;-4.90;92.20;;;;;;5039690;28;20120;-79
2023/02/08 01:16:14;;;;;;;11.13;7.95;;;-4.90;92.20;;;;;;5052646;28;20029;-77
2023/02/08 01:18:42;;;;;;;15.77;8.80;;;-4.90;92.30;;;;;;5051461;28;20036;-77
2023/02/08 01:21:09;;;;;;;;;;;-4.80;92.20;;;;;;5053098;28;20061;-77
2023/02/08 01:23:35;;;;;;;15.20;7.63;;;-4.70;92.20;;;;;;5052644;28;19936;-77
2023/02/08 01:26:02;;;;;;;13.30;7.53;;;-4.80;92.10;;;;;;5052699;28;20104;-77
2023/02/08 01:28:28;;;;;;;14.13;8.48;;;-4.80;92.10;;;;;;5052640;28;20472;-79
2023/02/08 01:30:54;;;;;;;12.57;8.10;;;-4.80;92.00;;;;;;5052558;28;20056;-77
2023/02/08 01:33:20;;;;;;;12.32;7.43;;;-4.80;92.00;;;;;;5052547;28;20017;-77
2023/02/08 01:35:50;;;;;;;15.65;9.82;;;-4.70;92.00;;;;;;5051516;28;20033;-77
2023/02/08 01:38:15;;;;;;;13.85;9.20;;;-4.70;92.10;;;;;;5052372;28;20117;-78
2023/02/08 01:40:41;;;;;;;13.45;9.23;;;-4.70;92.10;;;;;;5049177;28;20036;-76
2023/02/08 01:43:58;;;;;;;12.40;7.97;;;-4.70;92.00;;;;;;5052249;28;20456;-77
2023/02/08 01:46:23;;;;;;;12.15;7.80;;;-4.70;92.00;;;;;;5018338;28;20029;-77
2023/02/08 01:48:50;;;;;;;12.43;8.70;;;-4.70;91.90;;;;;;5052315;28;20032;-78
2023/02/08 01:51:21;;;;;;;10.00;6.47;;;-4.70;91.90;;;;;;5051401;28;20066;-76
2023/02/08 01:53:49;;;;;;;11.48;6.53;;;-4.70;91.90;;;;;;5052011;28;20033;-78
2023/02/08 01:56:22;;;;;;;13.93;8.23;;;-4.60;91.80;;;;;;5051966;28;20021;-77
2023/02/08 01:58:53;;;;;;;11.77;7.43;;;-4.70;91.70;;;;;;5050997;28;20029;-78
2023/02/08 02:01:19;;;;;;;14.98;7.15;;;-4.70;91.70;;;;;;5034416;28;20029;-77
2023/02/08 02:03:45;;;;;;;13.52;8.73;;;-4.80;91.60;;;;;;5052102;28;20087;-77
2023/02/08 02:06:23;;;;;;;12.63;7.85;;;-4.80;91.70;;;;;;5051798;28;20021;-77
2023/02/08 02:09:27;;;;;;;10.23;6.88;;;-4.80;91.60;;;;;;5051858;28;20087;-78
2023/02/08 02:11:54;;;;;;;11.80;8.35;;;-4.90;91.70;;;;;;5040100;28;20028;-77
2023/02/08 02:14:21;;;;;;;13.70;7.28;;;-4.90;91.80;;;;;;5051663;28;20495;-76
2023/02/08 02:16:47;;;;;;;17.43;9.10;;;-4.80;91.80;;;;;;5050980;28;20506;-77
2023/02/08 02:19:37;;;;;;;10.10;6.03;;;-4.80;91.70;;;;;;5051667;28;20491;-78
2023/02/08 02:22:30;;;;;;;14.95;9.80;;;-4.90;91.60;;;;;;5039628;28;20036;-78
2023/02/08 02:25:20;;;;;;;17.48;8.63;;;-5.00;91.60;;;;;;5040873;28;20036;-76
2023/02/08 02:28:27;;;;;;;12.63;7.00;;;-5.00;91.70;;;;;;5051530;28;20052;-77
2023/02/08 02:31:01;;;;;;;;;;;-5.10;91.70;;;;;;5042643;28;20021;-77
2023/02/08 02:34:07;;;;;;;12.82;7.57;;;-5.10;91.70;;;;;;5050611;28;19909;-78
2023/02/08 02:36:38;;;;;;;11.73;7.22;;;-5.20;91.70;;;;;;5033974;28;20041;-77
2023/02/08 02:39:38;;;;;;;14.43;8.10;;;-5.20;91.90;;;;;;5051796;28;20139;-78
2023/02/08 02:45:28;;;;;;;15.13;6.57;;;-5.30;92.00;;;;;;5051582;28;20048;-78
2023/02/08 02:48:04;;;;;;;13.02;7.72;;;-5.30;92.10;;;;;;5033171;28;20037;-76
2023/02/08 02:50:32;;;;;;;14.73;8.80;;;-5.20;92.20;;;;;;5050226;28;20025;-79
2023/02/08 02:53:17;;;;;;;13.15;8.50;;;-5.10;92.30;;;;;;5033264;28;20056;-77
2023/02/08 02:56:08;;;;;;;11.20;7.15;;;-5.00;92.30;;;;;;5051109;28;20711;-78
2023/02/08 02:58:39;;;;;;;10.88;7.35;;;-5.00;92.00;;;;;;5051409;28;20431;-76
2023/02/08 03:01:04;;;;;;;14.02;8.00;;;-5.00;92.00;;;;;;5050934;28;20033;-78
2023/02/08 03:03:33;;;;;;;10.48;6.47;;;-5.00;92.00;;;;;;5053850;28;20027;-79
2023/02/08 03:06:13;;;;;;;11.77;7.35;;;-5.00;92.10;;;;;;5054492;28;20131;-77
2023/02/08 03:08:58;;;;;;;16.13;9.73;;;-5.00;92.10;;;;;;5052711;28;20048;-77
2023/02/08 03:11:31;;;;;;;13.40;9.00;;;-5.00;92.10;;;;;;5055177;28;20430;-78
2023/02/08 03:14:12;;;;;;;12.32;7.97;;;-5.00;92.20;;;;;;5055260;28;20031;-78
2023/02/08 03:17:12;;;;;;;12.60;6.80;;;-4.90;92.20;;;;;;5054907;28;20037;-77
2023/02/08 03:20:08;;;;;;;9.40;6.28;;;-4.90;92.10;;;;;;5054785;28;20107;-77
2023/02/08 03:23:18;;;;;;;10.15;7.65;;;-4.90;92.10;;;;;;5038505;28;20048;-78
2023/02/08 03:26:12;;;;;;;13.68;7.93;;;-4.90;92.10;;;;;;4991581;28;20073;-78
2023/02/08 03:28:52;;;;;;;10.73;6.75;;;-4.90;92.40;;;;;;4977045;28;20400;-77
2023/02/08 03:31:24;;;;;;;13.30;7.38;;;-4.80;92.20;;;;;;5003287;28;20111;-78
2023/02/08 03:34:05;;;;;;;10.30;6.93;;;-4.80;92.20;;;;;;4993336;28;20042;-78
2023/02/08 03:36:41;;;;;;;11.85;7.45;;;-4.70;92.20;;;;;;4976910;28;20059;-76
2023/02/08 03:39:12;;;;;;;9.95;6.93;;;-4.70;92.10;;;;;;4992572;28;20565;-78
2023/02/08 03:41:41;;;;;;;10.55;7.65;;;-4.60;92.10;;;;;;4992852;28;20038;-78
2023/02/08 03:44:15;;;;;;;9.95;7.30;;;-4.60;92.10;;;;;;4993036;28;20026;-77
2023/02/08 03:46:49;;;;;;;12.10;8.60;;;-4.60;92.10;;;;;;4992814;28;20041;-78
2023/02/08 03:49:20;;;;;;;14.20;7.68;;;-4.50;92.10;;;;;;4993004;28;20071;-79
2023/02/08 03:51:46;;;;;;;11.27;6.43;;;-4.50;92.00;;;;;;4992812;28;20058;-77
2023/02/08 03:54:19;;;;;;;11.53;7.30;;;-4.50;92.10;;;;;;4991836;28;20038;-78
2023/02/08 03:56:55;;;;;;;13.43;7.22;;;-4.40;92.10;;;;;;4992875;28;20358;-78
2023/02/08 03:59:26;;;;;;;14.25;8.52;;;-4.40;92.10;;;;;;5010303;28;20025;-79
2023/02/08 04:02:00;;;;;;;8.68;6.13;;;-4.40;92.20;;;;;;5053958;28;20087;-78
2023/02/08 04:04:31;;;;;;;10.57;6.88;;;-4.30;92.20;;;;;;5053987;28;20029;-78
2023/02/08 04:06:57;;;;;;;11.93;7.13;;;-4.30;92.20;;;;;;5054020;28;20032;-80
2023/02/08 04:09:23;;;;;;;12.05;7.07;;;-4.30;92.10;;;;;;5035925;28;20045;-78
2023/02/08 04:11:49;;;;;;;14.68;9.02;;;-4.20;92.20;;;;;;5055024;28;20028;-78
2023/02/08 04:14:15;;;;;;;9.82;7.05;;;-4.20;92.20;;;;;;5045776;28;20028;-78
2023/02/08 04:16:41;;;;;;;13.18;7.00;;;-4.20;92.20;;;;;;5053636;28;20476;-77
2023/02/08 04:19:06;;;;;;;11.20;7.10;;;-4.10;92.20;;;;;;5035896;28;20025;-77
2023/02/08 04:21:32;;;;;;;12.45;6.47;;;-4.10;92.10;;;;;;5053899;28;20029;-78
2023/02/08 04:23:58;;;;;;;13.45;7.20;;;-4.20;92.10;;;;;;5035850;28;20120;-77
2023/02/08 04:26:24;;;;;;;11.25;7.10;;;-4.20;92.20;;;;;;5053723;28;20060;-79
2023/02/08 04:28:50;;;;;;;13.07;7.18;;;-4.20;92.20;;;;;;5053464;28;20025;-79
2023/02/08 04:31:16;;;;;;;13.32;7.00;;;-4.10;92.30;;;;;;5053275;28;20029;-79
2023/02/08 04:33:41;;;;;;;13.65;6.78;;;-4.10;92.30;;;;;;5053508;28;20027;-78
2023/02/08 04:36:08;;;;;;;11.82;6.97;;;-4.10;92.20;;;;;;5053478;28;20071;-78
2023/02/08 04:38:34;;;;;;;9.98;8.25;;;-4.10;92.30;;;;;;5053276;28;20099;-77
2023/02/08 04:41:00;;;;;;;11.43;8.27;;;-4.10;92.30;;;;;;5053271;28;20029;-78
2023/02/08 04:43:26;;;;;;;11.48;7.63;;;-4.10;92.40;;;;;;5035771;28;20514;-77
2023/02/08 04:45:52;;;;;;;11.77;6.53;;;-4.10;92.40;;;;;;5052662;28;20124;-78
2023/02/08 04:48:19;;;;;;;9.63;6.63;;;-4.00;92.50;;;;;;5053413;28;20047;-78
2023/02/08 04:50:45;;;;;;;12.25;6.57;;;-4.10;92.40;;;;;;5035344;28;20035;-79
2023/02/08 04:53:11;;;;;;;10.48;6.50;;;-4.10;92.50;;;;;;5053307;28;20025;-79
2023/02/08 04:55:36;;;;;;;10.63;5.65;;;-4.10;92.60;;;;;;5053324;28;20424;-78
2023/02/08 04:58:02;;;;;;;9.55;5.55;;;-4.00;92.60;;;;;;5053247;28;20376;-76
2023/02/08 05:00:29;;;;;;;14.20;6.32;;;-4.00;92.60;;;;;;5052280;28;20025;-78
2023/02/08 05:02:57;;;;;;;13.50;7.47;;;-4.00;92.70;;;;;;5052627;28;20143;-79
2023/02/08 05:05:27;;;;;;;10.25;6.40;;;-3.90;92.70;;;;;;5051688;28;20012;-77
2023/02/08 05:07:53;;;;;;;12.93;6.68;;;-3.90;92.80;;;;;;5032371;28;20506;-78
2023/02/08 05:10:19;;;;;;;9.32;5.00;;;-3.90;92.70;;;;;;5052920;28;20060;-78
2023/02/08 05:12:45;;;;;;;12.95;6.65;;;-3.90;92.60;;;;;;5052633;28;20021;-78
2023/02/08 05:15:10;;;;;;;13.23;7.68;;;-3.90;92.70;;;;;;5052639;28;20014;-78
2023/02/08 05:17:37;;;;;;;12.07;6.22;;;-3.90;92.80;;;;;;5034658;28;20040;-79
2023/02/08 05:20:04;;;;;;;12.23;7.78;;;-3.90;92.90;;;;;;5052791;28;20375;-78
2023/02/08 05:22:31;;;;;;;13.55;7.78;;;-3.80;92.80;;;;;;5051926;28;20032;-79
2023/02/08 05:24:57;;;;;;;12.45;7.32;;;-3.80;92.80;;;;;;5052890;28;20028;-79
2023/02/08 05:27:23;;;;;;;12.48;7.30;;;-3.70;92.80;;;;;;5051692;28;20086;-78
2023/02/08 05:29:49;;;;;;;17.42;9.05;;;-3.80;92.70;;;;;;5052549;28;20032;-79
2023/02/08 05:32:15;;;;;;;12.57;7.00;;;-3.80;92.70;;;;;;5048124;28;20384;-78
2023/02/08 05:34:41;;;;;;;11.82;7.13;;;-3.80;92.80;;;;;;5036215;28;20473;-77
2023/02/08 05:37:07;;;;;;;12.93;6.43;;;-3.80;92.90;;;;;;5040270;28;20025;-78
2023/02/08 05:39:33;;;;;;;11.93;6.28;;;-3.80;93.00;;;;;;5036152;28;20021;-77
2023/02/08 05:41:59;;;;;;;14.40;9.63;;;-3.70;93.00;;;;;;5039096;28;20051;-76
2023/02/08 05:44:25;;;;;;;22.20;8.85;;;-3.70;93.00;;;;;;5036031;28;20021;-79
2023/02/08 05:46:51;;;;;;;14.43;8.35;;;-3.70;92.90;;;;;;5040337;28;20424;-78
2023/02/08 05:49:17;;;;;;;12.63;8.13;;;-3.60;93.00;;;;;;5037525;28;20013;-77
2023/02/08 05:51:43;;;;;;;16.52;8.10;;;-3.60;92.90;;;;;;5036184;28;20029;-79
2023/02/08 05:54:09;;;;;;;16.67;7.80;;;-3.60;92.90;;;;;;5034279;28;20072;-78
2023/02/08 05:56:35;;;;;;;15.25;9.43;;;-3.50;92.90;;;;;;5046220;28;20511;-77
2023/02/08 05:59:08;;;;;;;14.00;7.07;;;-3.50;92.90;;;;;;5058680;28;20383;-77
2023/02/08 06:01:34;;;;;;;13.00;8.18;;;-3.50;93.00;;;;;;5052163;28;20152;-78
2023/02/08 06:04:00;;;;;;;14.50;7.70;;;-3.40;92.90;;;;;;5050940;28;20067;-76
2023/02/08 06:06:26;;;;;;;15.68;8.25;;;-3.50;93.10;;;;;;5053886;28;20371;-77
2023/02/08 06:08:52;;;;;;;15.35;8.82;;;-3.50;92.90;;;;;;5054079;28;20025;-77
2023/02/08 06:11:18;;;;;;;13.23;8.20;;;-3.40;92.90;;;;;;5055647;28;20021;-78
2023/02/08 06:13:45;;;;;;;15.10;8.55;;;-3.40;92.90;;;;;;5052846;28;20032;-78
2023/02/08 06:16:11;;;;;;;15.30;8.33;;;-3.40;92.90;;;;;;5052150;28;20036;-78
2023/02/08 06:18:37;;;;;;;16.83;9.13;;;-3.40;92.80;;;;;;5053582;28;20032;-79
2023/02/08 06:21:03;;;;;;;14.20;7.72;;;-3.40;92.70;;;;;;5059792;28;20062;-77
2023/02/08 06:23:29;;;;;;;15.73;9.55;;;-3.30;92.70;;;;;;5057214;28;20033;-77
2023/02/08 06:25:55;;;;;;;17.63;8.07;;;-3.30;92.70;;;;;;5062519;28;20168;-78
2023/02/08 06:28:21;;;;;;;13.75;8.05;;;-3.30;92.70;;;;;;5059183;28;20057;-78
2023/02/08 06:30:50;;;;;;;19.50;10.07;;;-3.30;92.70;;;;;;5057888;28;20021;-78
2023/02/08 06:33:17;;;;;;;14.93;9.50;;;-3.30;92.60;;;;;;5062704;28;20142;-77
2023/02/08 06:35:49;;;;;;;22.20;10.25;;;-3.40;92.50;;;;;;5057445;28;20021;-78
2023/02/08 06:38:15;;;;;;;17.20;9.32;;;-3.30;92.60;;;;;;5065148;28;20029;-79
2023/02/08 06:40:41;;;;;;;20.58;10.32;;;-3.30;92.60;;;;;;5060248;28;20028;-78
2023/02/08 06:43:07;;;;;;;15.90;9.35;;;-3.30;92.50;;;;;;5052504;28;20028;-76
2023/02/08 06:45:33;;;;;;;17.35;9.95;;;-3.20;92.60;;;;;;5063406;28;20033;-79
2023/02/08 06:47:59;;;;;;;16.42;9.38;;;-3.20;92.50;;;;;;5065195;28;20040;-81
2023/02/08 06:50:25;;;;;;;21.10;10.88;;;-3.10;92.40;;;;;;5061217;28;20067;-80
2023/02/08 06:56:13;;;;;;;14.65;9.25;;;-3.10;92.10;;;;;;5055354;22;20072;-79
2023/02/08 06:58:39;;;;;;;17.85;9.27;;;-3.10;92.10;;;;;;5007801;28;20042;-79
2023/02/08 07:01:04;;;;;;;19.85;10.30;;;-3.00;92.20;;;;;;5007866;28;20018;-79
2023/02/08 07:03:30;;;;;;;20.88;10.25;;;-3.00;92.20;;;;;;5007895;28;20093;-78
2023/02/08 07:05:56;;;;;;;19.83;9.95;;;-2.90;92.20;;;;;;5008124;28;20014;-79
2023/02/08 07:08:22;;;;;;;15.90;10.88;;;-2.90;92.20;;;;;;5006749;28;20041;-79
2023/02/08 07:10:48;;;;;;;22.45;9.63;;;-2.90;92.10;;;;;;4993319;28;20022;-79
2023/02/08 07:13:14;;;;;;;17.45;9.80;;;-2.90;92.10;;;;;;4994035;28;20030;-79
2023/02/08 07:15:39;;;;;;;15.20;9.68;;;-2.80;92.00;;;;;;4992854;28;20070;-80
2023/02/08 07:18:05;;;;;;;20.00;9.25;;;-2.80;92.00;;;;;;4993768;28;20396;-79
2023/02/08 07:20:31;;;;;;;15.18;10.32;;;-2.70;91.90;;;;;;4994778;28;20018;-80
2023/02/08 07:23:00;;;;;;;15.35;8.25;;;-2.70;91.90;;;;;;4994783;28;20084;-79
2023/02/08 07:25:25;;;;;;;34.90;13.30;;;-2.70;91.90;;;;;;4994451;28;20035;-79
2023/02/08 07:27:51;;;;;;;18.90;9.13;;;-2.70;91.90;;;;;;4993276;28;20023;-79
2023/02/08 07:30:17;;;;;;;15.15;9.20;;;-2.60;91.80;;;;;;4994502;28;20356;-78
2023/02/08 07:32:43;;;;;;;15.52;9.43;;;-2.70;91.60;;;;;;4994531;28;20037;-79
2023/02/08 07:35:09;;;;;;;15.35;10.40;;;-2.70;91.80;;;;;;4993312;28;20029;-79
2023/02/08 07:37:34;;;;;;;19.65;9.20;;;-2.70;91.80;;;;;;4994441;28;20394;-80
2023/02/08 07:40:00;;;;;;;13.38;9.10;;;-2.60;91.70;;;;;;4994345;28;20036;-81
2023/02/08 07:42:26;;;;;;;16.45;8.57;;;-2.60;91.70;;;;;;4993999;28;20014;-79
2023/02/08 07:44:52;;;;;;;19.75;9.10;;;-2.60;91.70;;;;;;4994074;28;20050;-79
2023/02/08 07:47:18;;;;;;;17.48;11.10;;;-2.50;91.80;;;;;;4994229;28;20026;-80
2023/02/08 07:49:44;;;;;;;16.73;8.65;;;-2.50;91.70;;;;;;4994078;28;20061;-79
2023/02/08 07:52:09;;;;;;;13.40;7.72;;;-2.40;91.60;;;;;;4993320;28;20085;-79
2023/02/08 07:54:35;;;;;;;18.45;9.32;;;-2.40;91.50;;;;;;4992714;28;20431;-78
2023/02/08 07:57:01;;;;;;;15.68;8.68;;;-2.50;91.40;;;;;;4993851;28;20415;-79
2023/02/08 07:59:27;;;;;;;15.50;8.77;;;-2.50;91.50;;;;;;4993781;28;20105;-79
2023/02/08 08:01:52;;;;;;;18.17;9.90;;;-2.50;91.60;;;;;;4994270;28;20349;-79
2023/02/08 08:04:18;;;;;;;14.38;8.00;;;-2.50;91.60;;;;;;4993926;28;20061;-79
2023/02/08 08:06:45;;;;;;;15.77;9.48;;;-2.40;91.60;;;;;;4993618;28;20152;-79
2023/02/08 08:09:11;;;;;;;17.13;10.35;;;-2.40;91.70;;;;;;4993346;28;20023;-79
2023/02/08 08:11:37;;;;;;;12.57;8.88;;;-2.40;91.60;;;;;;4993571;28;20033;-79
2023/02/08 08:14:02;;;;;;;18.17;11.02;;;-2.30;91.60;;;;;;4993770;28;20027;-79
2023/02/08 08:16:28;;;;;;;14.55;8.27;;;-2.30;91.60;;;;;;4992047;28;20345;-78
2023/02/08 08:18:54;;;;;;;14.65;8.13;;;-2.20;91.50;;;;;;4993531;28;20034;-79
2023/02/08 08:21:20;;;;;;;18.45;9.30;;;-2.20;91.40;;;;;;4992546;28;20022;-81
2023/02/08 08:23:46;;;;;;;16.85;9.40;;;-2.30;91.30;;;;;;4993094;28;20018;-81
2023/02/08 08:26:18;;;;;;;24.75;11.10;;;-2.40;91.40;;;;;;4993331;28;20037;-80
2023/02/08 08:28:45;;;;;;;18.00;9.15;;;-2.40;91.70;;;;;;4980809;28;20026;-79
2023/02/08 08:31:20;;;;;;;15.85;8.15;;;-2.50;91.50;;;;;;4993435;28;20030;-79
2023/02/08 08:33:46;;;;;;;13.43;8.20;;;-2.40;91.60;;;;;;4979996;28;20117;-80
2023/02/08 08:36:11;;;;;;;12.68;7.82;;;-2.30;91.70;;;;;;4993267;28;20022;-78
2023/02/08 08:38:39;;;;;;;13.25;8.98;;;-2.30;91.60;;;;;;4992916;28;20483;-79
2023/02/08 08:41:14;;;;;;;16.25;8.75;;;-2.30;91.70;;;;;;4991333;28;20030;-79
2023/02/08 08:43:40;;;;;;;14.68;9.43;;;-2.20;91.70;;;;;;4992960;28;20114;-79
2023/02/08 08:46:06;;;;;;;16.02;8.77;;;-2.20;91.60;;;;;;4993120;28;20093;-78
2023/02/08 08:48:33;;;;;;;16.38;8.68;;;-2.10;91.60;;;;;;4993144;28;20026;-79
2023/02/08 08:50:59;;;;;;;13.73;8.65;;;-2.10;91.50;;;;;;4993149;28;20027;-79
2023/02/08 08:53:25;;;;;;;13.20;8.35;;;-2.20;91.50;;;;;;4991718;28;20038;-79
2023/02/08 08:55:51;;;;;;;13.90;8.23;;;-2.20;91.60;;;;;;4992624;28;20042;-79
2023/02/08 08:58:17;;;;;;;11.38;7.18;;;-2.30;91.70;;;;;;4992010;28;20045;-80
2023/02/08 09:00:43;;;;;;;17.15;9.20;;;-2.30;91.90;;;;;;4992776;28;20022;-80
2023/02/08 09:03:09;;;;;;;15.48;8.15;;;-2.20;92.00;;;;;;4992958;28;20026;-79
2023/02/08 09:05:35;;;;;;;17.00;9.15;;;-2.00;92.00;;;;;;4991743;28;20098;-79
2023/02/08 09:08:02;;;;;;;15.93;8.40;;;-1.80;91.90;;;;;;4992699;28;20026;-80
2023/02/08 09:10:29;;;;;;;18.95;10.40;;;-1.60;91.90;;;;;;4993130;28;20031;-79
2023/02/08 09:12:56;;;;;;;17.27;8.77;;;-1.40;91.50;;;;;;4991592;28;20026;-79
2023/02/08 09:15:22;;;;;;;13.50;8.15;;;-1.30;91.40;;;;;;4991255;28;20074;-79
2023/02/08 09:17:47;;;;;;;13.95;7.30;;;-1.30;91.30;;;;;;4992344;28;20065;-80
2023/02/08 09:20:13;;;;;;;13.50;8.40;;;-1.20;91.20;;;;;;4992773;28;20088;-80
2023/02/08 09:22:39;;;;;;;13.10;8.30;;;-1.00;91.10;;;;;;4992579;28;20027;-79
2023/02/08 09:25:06;;;;;;;17.58;10.80;;;-1.00;90.90;;;;;;4992443;28;20030;-78
2023/02/08 09:27:33;;;;;;;12.77;8.88;;;-0.80;91.00;;;;;;4992420;28;20022;-79
2023/02/08 09:29:59;;;;;;;13.98;7.93;;;-0.70;90.90;;;;;;4991549;28;20026;-79
2023/02/08 09:32:25;;;;;;;17.55;8.48;;;-0.70;90.60;;;;;;4991977;28;20439;-78
2023/02/08 09:34:51;;;;;;;11.60;7.18;;;-0.70;90.60;;;;;;4991760;28;20034;-79
2023/02/08 09:37:17;;;;;;;13.60;8.93;;;-0.70;90.60;;;;;;4992371;28;20081;-79
2023/02/08 09:39:43;;;;;;;13.63;8.52;;;-0.80;90.20;;;;;;4992161;28;20408;-80
2023/02/08 09:42:17;;;;;;;12.27;7.83;;;-0.90;90.40;;;;;;4992049;28;20433;-79
2023/02/08 09:45:24;;;;;;;14.48;8.50;;;-0.80;90.60;;;;;;4992117;28;20037;-80
2023/02/08 09:47:56;;;;;;;;;;;-0.90;90.50;;;;;;4961465;28;20041;-79
2023/02/08 09:50:38;;;;;;;11.60;7.22;;;-1.10;90.60;;;;;;4992090;28;19906;-80
2023/02/08 09:53:14;;;;;;;16.35;8.07;;;-1.20;90.80;;;;;;4991990;28;20034;-79
2023/02/08 09:55:45;;;;;;;13.40;8.33;;;-1.20;91.00;;;;;;4991796;28;20348;-79
2023/02/08 09:58:20;;;;;;;17.05;8.75;;;-1.30;90.80;;;;;;4991914;28;20030;-79
2023/02/08 10:00:49;;;;;;;15.18;8.80;;;-1.40;91.00;;;;;;4991995;28;20019;-80
2023/02/08 10:03:27;;;;;;;17.33;8.35;;;-1.40;91.00;;;;;;4991176;28;20154;-82
2023/02/08 10:05:53;;;;;;;15.80;9.10;;;-1.40;91.10;;;;;;4990784;28;20150;-77
2023/02/08 10:08:19;;;;;;;14.88;8.82;;;-1.40;91.20;;;;;;4990807;28;20129;-79
2023/02/08 10:10:51;;;;;;;15.43;9.43;;;-1.30;91.30;;;;;;4991902;28;20023;-80
2023/02/08 10:13:23;;;;;;;16.63;8.88;;;-1.20;91.20;;;;;;4992308;28;20088;-80
2023/02/08 10:16:17;;;;;;;17.65;9.52;;;-1.00;91.10;;;;;;4992109;28;20042;-79
2023/02/08 10:19:00;;;;;;;16.73;10.25;;;-0.70;90.90;;;;;;4980865;28;20563;-78
2023/02/08 10:21:51;;;;;;;14.63;9.57;;;0.10;90.70;;;;;;4990856;28;20105;-79
2023/02/08 10:24:19;;;;;;;16.38;8.68;;;1.10;90.20;;;;;;4992145;28;20022;-79
2023/02/08 10:27:13;;;;;;;16.48;9.38;;;3.10;86.90;;;;;;4990520;28;20022;-79
2023/02/08 10:30:00;;;;;;;14.52;10.32;;;4.50;82.20;;;;;;4991706;28;20026;-80
2023/02/08 10:32:35;;;;;;;16.02;10.90;;;4.50;78.70;;;;;;4991890;28;20484;-80
2023/02/08 10:35:20;;;;;;;15.00;9.95;;;4.20;76.10;;;;;;4991580;28;20081;-78
2023/02/08 10:37:46;;;;;;;18.75;11.00;;;4.20;76.80;;;;;;4990645;28;20046;-79
2023/02/08 10:40:37;;;;;;;15.10;8.65;;;3.80;73.70;;;;;;4991373;28;20057;-78
2023/02/08 10:43:11;;;;;;;15.10;9.73;;;3.50;75.30;;;;;;4990424;28;20029;-78
2023/02/08 10:46:01;;;;;;;16.20;8.75;;;3.20;75.70;;;;;;4994638;28;20391;-80
2023/02/08 10:48:51;;;;;;;16.63;9.48;;;2.90;75.60;;;;;;4995278;28;20045;-79
2023/02/08 10:51:19;;;;;;;15.15;10.00;;;2.80;76.20;;;;;;4995356;28;20105;-79
2023/02/08 10:53:49;;;;;;;13.60;8.10;;;2.60;76.20;;;;;;4994253;28;20035;-79
2023/02/08 10:56:56;;;;;;;19.33;9.82;;;1.90;76.00;;;;;;4995038;28;20043;-78
2023/02/08 10:59:44;;;;;;;16.98;9.70;;;1.20;78.20;;;;;;4990334;28;20050;-80
2023/02/08 11:02:25;;;;;;;16.30;9.60;;;0.90;79.60;;;;;;4993910;28;20034;-79
2023/02/08 11:04:59;;;;;;;16.80;8.80;;;0.50;80.60;;;;;;4995091;28;20384;-78
2023/02/08 11:07:27;;;;;;;15.20;9.90;;;0.40;81.60;;;;;;4994855;28;20047;-80
2023/02/08 11:09:53;;;;;;;15.15;9.27;;;0.30;82.10;;;;;;4992326;28;20049;-80
2023/02/08 11:12:21;;;;;;;13.75;8.32;;;0.30;82.70;;;;;;4995217;28;20475;-79
2023/02/08 11:14:52;;;;;;;14.13;9.60;;;0.20;82.50;;;;;;4994891;28;20332;-78
2023/02/08 11:17:28;;;;;;;15.35;8.93;;;0.30;83.00;;;;;;4994803;28;20161;-79
2023/02/08 11:19:55;;;;;;;12.48;7.80;;;0.30;82.70;;;;;;4992681;28;20073;-79
2023/02/08 11:22:23;;;;;;;14.05;8.82;;;0.30;82.90;;;;;;4994785;28;20031;-80
2023/02/08 11:25:36;;;;;;;11.02;7.22;;;0.20;82.80;;;;;;4993331;28;20086;-78
2023/02/08 11:28:02;;;;;;;10.18;6.70;;;0.00;82.90;;;;;;4980331;28;20038;-78
2023/02/08 11:30:29;;;;;;;12.68;7.30;;;-0.10;82.90;;;;;;4993342;28;20045;-79
2023/02/08 11:33:18;;;;;;;15.87;7.23;;;0.00;83.90;;;;;;4994716;28;20030;-79
2023/02/08 11:36:00;;;;;;;14.68;7.70;;;0.10;84.20;;;;;;4982284;28;20030;-79
2023/02/08 11:38:27;;;;;;;13.02;7.78;;;0.30;83.90;;;;;;4994114;28;20061;-79
2023/02/08 11:40:55;;;;;;;13.57;8.25;;;0.40;83.90;;;;;;4993283;28;20014;-79
2023/02/08 11:44:00;;;;;;;16.48;7.38;;;0.60;83.50;;;;;;4994309;28;20025;-78
2023/02/08 11:46:28;;;;;;;14.45;8.40;;;0.60;82.50;;;;;;4976951;28;20049;-80
2023/02/08 11:48:55;;;;;;;10.43;7.35;;;0.60;82.60;;;;;;4994418;28;20089;-80
2023/02/08 11:51:34;;;;;;;12.77;7.47;;;0.40;82.40;;;;;;4994393;28;20022;-79
2023/02/08 11:54:01;;;;;;;10.90;7.38;;;0.40;83.00;;;;;;4993312;28;20026;-79
2023/02/08 11:56:32;;;;;;;15.37;8.43;;;0.30;83.20;;;;;;4992778;28;20050;-78
2023/02/08 11:59:23;;;;;;;14.75;9.25;;;0.30;83.40;;;;;;4994030;28;20053;-80
2023/02/08 12:01:49;;;;;;;11.82;7.03;;;0.20;83.20;;;;;;4993799;28;20031;-79
2023/02/08 12:04:16;;;;;;;11.95;7.97;;;0.00;83.40;;;;;;4993994;28;20026;-79
2023/02/08 12:07:14;;;;;;;11.90;7.35;;;0.00;84.00;;;;;;4994548;28;20469;-79
2023/02/08 12:10:07;;;;;;;11.95;7.80;;;-0.20;84.20;;;;;;4991800;28;20399;-80
2023/02/08 12:12:39;;;;;;;10.27;7.75;;;-0.40;84.80;;;;;;4992947;28;20491;-79
2023/02/08 12:15:31;;;;;;;12.20;7.60;;;-0.50;84.90;;;;;;4992544;28;20113;-79
2023/02/08 12:18:12;;;;;;;11.45;7.43;;;-0.60;85.20;;;;;;4993875;28;20038;-79
2023/02/08 12:20:50;;;;;;;12.90;7.20;;;-0.70;85.80;;;;;;4992542;28;20133;-79
2023/02/08 12:23:52;;;;;;;10.55;6.05;;;-0.70;86.30;;;;;;4993744;28;20018;-79
2023/02/08 12:26:58;;;;;;;12.32;8.63;;;-0.90;86.60;;;;;;4992964;28;20100;-80
2023/02/08 12:29:41;;;;;;;15.77;6.83;;;-0.90;87.30;;;;;;4986439;28;20407;-80
2023/02/08 12:32:51;;;;;;;13.93;7.32;;;-0.70;87.20;;;;;;4988214;28;20049;-78
2023/02/08 12:35:29;;;;;;;8.88;5.00;;;-0.70;86.90;;;;;;4993994;28;20073;-80
2023/02/08 12:41:37;;;;;;;12.85;7.15;;;-0.60;87.20;;;;;;4994695;28;20385;-82
2023/02/08 12:44:53;;;;;;;11.20;7.85;;;-0.50;87.00;;;;;;4995397;28;20042;-81
2023/02/08 12:48:04;;;;;;;14.00;7.13;;;-0.50;87.00;;;;;;4935458;29;20051;-78
2023/02/08 12:50:44;;;;;;;11.32;7.63;;;-0.40;87.20;;;;;;4947933;29;20027;-79
2023/02/08 12:53:21;;;;;;;10.07;7.00;;;-0.40;87.10;;;;;;5010600;28;20045;-80
2023/02/08 12:55:49;;;;;;;11.07;6.90;;;-0.40;86.70;;;;;;4998402;28;20089;-80
2023/02/08 12:58:34;;;;;;;12.68;8.05;;;-0.40;86.70;;;;;;5005782;28;20042;-79
2023/02/08 13:01:08;;;;;;;13.27;7.43;;;-0.50;86.90;;;;;;4997363;28;20034;-80
2023/02/08 13:03:52;;;;;;;13.65;6.90;;;-0.40;87.00;;;;;;4992622;28;20105;-80
2023/02/08 13:06:23;;;;;;;11.32;5.57;;;-0.40;86.90;;;;;;4992945;28;20057;-79
2023/02/08 13:08:52;;;;;;;9.70;6.63;;;-0.50;86.90;;;;;;4991842;28;20492;-80
2023/02/08 13:11:31;;;;;;;7.93;5.57;;;-0.60;86.90;;;;;;4992866;28;20056;-79